Time;durP1;ratioP1;P1;durP2;ratioP2;P2;SDS_P1;SDS_P2;PMS_P1;PMS_P2;Temp;Humidity;BMP_temperature;BMP_pressure;BME280_temperature;BME280_humidity;BME280_pressure;Samples;Min_cycle;Max_cycle;Signal;HPM_P1;HPM_P2
2021/10/19 00:01:50;;;;;;;25.23;20.38;;;12.40;99.90;;;;;;6033736;23;20086;-58
2021/10/19 00:04:17;;;;;;;23.02;19.63;;;12.40;99.90;;;;;;6034345;23;20035;-58
2021/10/19 00:06:43;;;;;;;23.13;20.67;;;12.40;99.90;;;;;;6034423;23;20031;-57
2021/10/19 00:09:09;;;;;;;22.80;20.40;;;12.40;99.90;;;;;;6034119;23;20065;-58
2021/10/19 00:11:35;;;;;;;22.63;20.00;;;12.40;99.90;;;;;;6032242;23;20035;-58
2021/10/19 00:14:01;;;;;;;25.92;20.35;;;12.40;99.90;;;;;;6034167;23;20091;-57
2021/10/19 00:16:27;;;;;;;24.10;20.40;;;12.40;99.90;;;;;;6034813;23;20034;-57
2021/10/19 00:18:56;;;;;;;22.80;20.50;;;12.40;99.90;;;;;;6033593;23;20019;-57
2021/10/19 00:21:22;;;;;;;25.23;20.67;;;12.40;99.90;;;;;;6033792;23;20035;-58
2021/10/19 00:23:48;;;;;;;23.27;20.63;;;12.50;99.90;;;;;;6034578;23;20035;-58
2021/10/19 00:26:14;;;;;;;22.63;20.23;;;12.50;99.90;;;;;;6033903;23;20027;-58
2021/10/19 00:28:40;;;;;;;25.50;20.00;;;12.50;99.90;;;;;;6033939;23;20288;-58
2021/10/19 00:31:06;;;;;;;23.70;19.98;;;12.50;99.90;;;;;;6031770;23;20412;-57
2021/10/19 00:33:32;;;;;;;23.45;20.45;;;12.50;99.90;;;;;;6033912;23;20358;-58
2021/10/19 00:35:58;;;;;;;25.02;20.73;;;12.40;99.90;;;;;;6033804;23;20027;-58
2021/10/19 00:38:24;;;;;;;24.10;20.35;;;12.50;99.90;;;;;;6032359;23;20026;-58
2021/10/19 00:40:50;;;;;;;27.48;21.35;;;12.50;99.90;;;;;;6032445;23;20077;-58
2021/10/19 00:43:16;;;;;;;24.45;20.52;;;12.40;99.90;;;;;;6033672;23;20128;-58
2021/10/19 00:45:42;;;;;;;22.92;20.10;;;12.40;99.90;;;;;;6034261;23;20062;-58
2021/10/19 00:48:10;;;;;;;20.65;18.45;;;12.40;99.90;;;;;;6034432;23;20410;-58
2021/10/19 00:50:36;;;;;;;24.90;19.05;;;12.40;99.90;;;;;;6033574;23;20023;-58
2021/10/19 00:53:03;;;;;;;23.05;19.40;;;12.40;99.90;;;;;;6033517;23;20023;-58
2021/10/19 00:55:33;;;;;;;23.25;19.83;;;12.40;99.90;;;;;;6034088;23;20035;-58
2021/10/19 00:58:01;;;;;;;23.77;20.40;;;12.40;99.90;;;;;;6033999;23;20031;-58
2021/10/19 01:00:27;;;;;;;25.35;20.58;;;12.50;99.90;;;;;;6033675;23;20046;-58
2021/10/19 01:02:53;;;;;;;24.80;21.27;;;12.50;99.90;;;;;;6034028;23;20030;-58
2021/10/19 01:05:20;;;;;;;25.65;21.13;;;12.50;99.90;;;;;;6033867;23;20062;-58
2021/10/19 01:07:46;;;;;;;22.70;19.77;;;12.50;99.90;;;;;;6033919;23;20024;-58
2021/10/19 01:10:12;;;;;;;26.63;20.88;;;12.50;99.90;;;;;;6033364;23;20099;-58
2021/10/19 01:12:39;;;;;;;23.10;20.08;;;12.50;99.90;;;;;;6033024;23;20035;-58
2021/10/19 01:15:17;;;;;;;24.00;20.75;;;12.50;99.90;;;;;;6033509;23;20031;-58
2021/10/19 01:17:44;;;;;;;26.00;21.58;;;12.60;99.90;;;;;;6033597;23;20521;-58
2021/10/19 01:20:22;;;;;;;23.23;20.52;;;12.60;99.90;;;;;;6032996;23;20119;-58
2021/10/19 01:22:49;;;;;;;23.67;19.90;;;12.60;99.90;;;;;;6033080;23;20042;-58
2021/10/19 01:25:17;;;;;;;24.15;20.63;;;12.60;99.90;;;;;;6033323;23;20031;-58
2021/10/19 01:27:45;;;;;;;23.58;20.83;;;12.60;99.90;;;;;;6033466;23;20111;-58
2021/10/19 01:30:14;;;;;;;25.52;20.50;;;12.60;99.90;;;;;;6031920;23;20027;-58
2021/10/19 01:32:40;;;;;;;21.88;18.85;;;12.60;99.90;;;;;;6033644;23;20094;-58
2021/10/19 01:35:07;;;;;;;25.20;20.17;;;12.60;99.90;;;;;;6033268;23;20059;-58
2021/10/19 01:37:34;;;;;;;25.40;18.73;;;12.60;99.90;;;;;;6032834;23;20047;-58
2021/10/19 01:40:01;;;;;;;23.10;19.50;;;12.60;99.90;;;;;;6032754;23;20035;-58
2021/10/19 01:42:27;;;;;;;25.58;19.30;;;12.60;99.90;;;;;;6032313;23;20118;-58
2021/10/19 01:44:53;;;;;;;22.70;19.17;;;12.60;99.90;;;;;;6032955;23;20118;-58
2021/10/19 01:47:18;;;;;;;22.80;20.38;;;12.60;99.90;;;;;;6033134;23;20432;-59
2021/10/19 01:49:44;;;;;;;23.10;20.70;;;12.50;99.90;;;;;;6030911;23;20035;-58
2021/10/19 01:52:10;;;;;;;23.60;20.48;;;12.50;99.90;;;;;;6029571;23;20067;-58
2021/10/19 01:54:36;;;;;;;22.38;19.35;;;12.40;99.90;;;;;;6032906;23;20033;-59
2021/10/19 01:57:03;;;;;;;21.98;19.65;;;12.40;99.90;;;;;;6033062;23;20420;-59
2021/10/19 01:59:29;;;;;;;24.77;21.15;;;12.40;99.90;;;;;;6054250;23;20027;-59
2021/10/19 02:01:55;;;;;;;22.77;19.52;;;12.40;99.90;;;;;;6032165;23;20038;-58
2021/10/19 02:04:21;;;;;;;21.40;18.80;;;12.50;99.90;;;;;;6032805;23;20031;-58
2021/10/19 02:06:47;;;;;;;21.20;19.00;;;12.50;99.90;;;;;;6033031;23;20023;-58
2021/10/19 02:09:13;;;;;;;24.50;20.08;;;12.50;99.90;;;;;;6033457;23;20063;-58
2021/10/19 02:11:40;;;;;;;20.85;18.45;;;12.50;99.90;;;;;;6032562;23;20027;-59
2021/10/19 02:14:06;;;;;;;23.10;20.58;;;12.40;99.90;;;;;;6033265;23;20050;-58
2021/10/19 02:16:32;;;;;;;23.15;20.42;;;12.50;99.90;;;;;;6033040;23;20039;-59
2021/10/19 02:18:58;;;;;;;23.35;20.85;;;12.50;99.90;;;;;;6032316;23;20517;-57
2021/10/19 02:21:24;;;;;;;22.60;20.02;;;12.50;99.90;;;;;;6033141;23;20042;-58
2021/10/19 02:23:50;;;;;;;25.17;22.48;;;12.50;99.90;;;;;;6032103;23;20035;-58
2021/10/19 02:26:16;;;;;;;22.73;20.23;;;12.40;99.90;;;;;;6032415;23;20043;-58
2021/10/19 02:28:42;;;;;;;23.48;20.85;;;12.40;99.90;;;;;;6030568;23;20031;-58
2021/10/19 02:31:10;;;;;;;24.10;21.50;;;12.30;99.90;;;;;;6033507;23;20038;-58
2021/10/19 02:33:37;;;;;;;23.20;20.70;;;12.30;99.90;;;;;;6032918;23;20027;-58
2021/10/19 02:36:03;;;;;;;25.35;20.70;;;12.30;99.90;;;;;;6032595;23;20027;-58
2021/10/19 02:38:29;;;;;;;28.45;21.67;;;12.30;99.90;;;;;;6032349;23;20094;-58
2021/10/19 02:40:55;;;;;;;26.50;21.20;;;12.20;99.90;;;;;;6031832;23;20457;-57
2021/10/19 02:43:21;;;;;;;25.98;23.02;;;12.20;99.90;;;;;;6032039;23;20476;-58
2021/10/19 02:45:48;;;;;;;23.95;21.17;;;12.20;99.90;;;;;;6032262;23;20118;-58
2021/10/19 02:48:14;;;;;;;25.58;22.33;;;12.20;99.90;;;;;;6032259;23;20342;-58
2021/10/19 02:50:40;;;;;;;26.85;21.95;;;12.20;99.90;;;;;;6030905;23;20038;-58
2021/10/19 02:53:06;;;;;;;25.20;21.70;;;12.20;99.90;;;;;;6031809;23;20034;-58
2021/10/19 02:55:32;;;;;;;25.30;22.55;;;12.30;99.90;;;;;;6032421;23;20461;-57
2021/10/19 02:57:58;;;;;;;25.90;22.33;;;12.30;99.90;;;;;;6031903;23;20547;-58
2021/10/19 03:00:25;;;;;;;24.90;22.15;;;12.30;99.90;;;;;;6032355;23;20035;-58
2021/10/19 03:02:51;;;;;;;25.02;21.88;;;12.30;99.90;;;;;;6031800;23;20027;-58
2021/10/19 03:05:17;;;;;;;25.67;22.52;;;12.30;99.90;;;;;;6032107;23;20038;-57
2021/10/19 03:07:43;;;;;;;24.95;22.17;;;12.40;99.90;;;;;;6032869;23;20027;-58
2021/10/19 03:10:09;;;;;;;26.27;22.88;;;12.40;99.90;;;;;;6031888;23;20524;-58
2021/10/19 03:12:36;;;;;;;26.38;22.25;;;12.30;99.90;;;;;;6030447;23;20437;-56
2021/10/19 03:15:02;;;;;;;26.95;22.63;;;12.40;99.90;;;;;;6031093;23;20032;-57
2021/10/19 03:17:28;;;;;;;25.63;21.85;;;12.40;99.90;;;;;;6031137;23;20031;-57
2021/10/19 03:19:54;;;;;;;24.85;22.15;;;12.40;99.90;;;;;;6032469;23;20030;-57
2021/10/19 03:22:20;;;;;;;25.30;22.58;;;12.40;99.90;;;;;;6032848;23;20702;-57
2021/10/19 03:24:49;;;;;;;24.38;21.75;;;12.40;99.90;;;;;;6033026;23;20046;-57
2021/10/19 03:27:15;;;;;;;25.80;23.00;;;12.40;99.90;;;;;;6032774;23;20131;-57
2021/10/19 03:29:42;;;;;;;25.45;22.70;;;12.40;99.90;;;;;;6032612;23;20031;-57
2021/10/19 03:32:11;;;;;;;24.42;21.67;;;12.30;99.90;;;;;;6033470;23;20067;-56
2021/10/19 03:34:37;;;;;;;26.30;23.50;;;12.40;99.90;;;;;;6031870;23;20353;-57
2021/10/19 03:37:04;;;;;;;25.52;22.63;;;12.40;99.90;;;;;;6032601;23;20058;-57
2021/10/19 03:39:30;;;;;;;27.05;22.55;;;12.40;99.90;;;;;;6032660;23;20083;-56
2021/10/19 03:41:56;;;;;;;25.23;21.90;;;12.40;99.90;;;;;;6032354;23;20122;-57
2021/10/19 03:44:22;;;;;;;26.15;21.55;;;12.50;99.90;;;;;;6032613;23;20038;-57
2021/10/19 03:46:48;;;;;;;27.83;22.92;;;12.50;99.90;;;;;;6032230;23;20086;-57
2021/10/19 03:49:14;;;;;;;24.83;21.83;;;12.50;99.90;;;;;;6032326;23;20357;-57
2021/10/19 03:51:40;;;;;;;25.00;22.40;;;12.50;99.90;;;;;;6031681;23;20035;-57
2021/10/19 03:54:06;;;;;;;25.23;22.63;;;12.60;99.90;;;;;;6031318;23;20032;-57
2021/10/19 03:56:32;;;;;;;24.85;22.10;;;12.60;99.90;;;;;;6032631;23;20415;-58
2021/10/19 03:58:58;;;;;;;24.15;21.63;;;12.50;99.90;;;;;;6032117;23;20445;-57
2021/10/19 04:01:24;;;;;;;25.77;21.85;;;12.60;99.90;;;;;;6031584;23;20038;-57
2021/10/19 04:03:50;;;;;;;24.33;21.30;;;12.60;99.90;;;;;;6032261;23;20105;-56
2021/10/19 04:06:17;;;;;;;25.63;22.65;;;12.60;99.90;;;;;;6032440;23;20077;-57
2021/10/19 04:08:43;;;;;;;24.40;20.85;;;12.60;99.90;;;;;;6033083;23;20079;-56
2021/10/19 04:11:09;;;;;;;24.75;21.67;;;12.60;99.90;;;;;;6031114;23;20057;-57
2021/10/19 04:13:35;;;;;;;26.17;23.30;;;12.60;99.90;;;;;;6030632;23;20031;-57
2021/10/19 04:16:01;;;;;;;25.10;22.50;;;12.70;99.90;;;;;;6031662;23;20402;-57
2021/10/19 04:18:30;;;;;;;24.77;22.38;;;12.60;99.90;;;;;;6032511;23;20160;-55
2021/10/19 04:20:56;;;;;;;23.77;21.23;;;12.60;99.90;;;;;;6032622;23;20058;-58
2021/10/19 04:23:23;;;;;;;28.30;24.25;;;12.60;99.90;;;;;;6032312;23;20039;-58
2021/10/19 04:25:49;;;;;;;24.90;22.30;;;12.70;99.90;;;;;;6032337;23;20130;-58
2021/10/19 04:28:15;;;;;;;26.88;22.38;;;12.70;99.90;;;;;;6032865;23;20360;-57
2021/10/19 04:30:46;;;;;;;24.73;21.80;;;12.70;99.90;;;;;;6033774;23;20030;-57
2021/10/19 04:33:12;;;;;;;25.05;21.80;;;12.70;99.90;;;;;;6032787;23;20063;-57
2021/10/19 04:35:38;;;;;;;26.92;23.20;;;12.70;99.90;;;;;;6033398;23;20441;-57
2021/10/19 04:38:04;;;;;;;25.52;22.63;;;12.70;99.90;;;;;;6032748;23;20456;-57
2021/10/19 04:40:30;;;;;;;29.13;22.67;;;12.70;99.90;;;;;;6033102;23;20046;-57
2021/10/19 04:42:56;;;;;;;26.15;22.23;;;12.80;99.90;;;;;;6032458;23;20027;-57
2021/10/19 04:45:23;;;;;;;25.13;22.17;;;12.80;99.90;;;;;;6034238;23;20082;-55
2021/10/19 04:47:50;;;;;;;24.95;22.05;;;12.80;99.90;;;;;;6034471;23;20031;-56
2021/10/19 04:50:16;;;;;;;26.23;22.98;;;12.80;99.90;;;;;;6034410;23;20318;-57
2021/10/19 04:52:42;;;;;;;26.35;22.83;;;12.80;99.90;;;;;;6033215;23;20095;-57
2021/10/19 04:55:09;;;;;;;24.95;21.63;;;12.80;99.90;;;;;;6031434;23;20030;-57
2021/10/19 04:57:35;;;;;;;25.10;22.48;;;12.80;99.90;;;;;;6034118;23;20063;-57
2021/10/19 05:00:01;;;;;;;26.42;23.00;;;12.80;99.90;;;;;;6033585;23;20032;-57
2021/10/19 05:02:27;;;;;;;24.02;21.40;;;12.80;99.90;;;;;;6033094;23;20023;-56
2021/10/19 05:04:54;;;;;;;26.10;22.30;;;12.80;99.90;;;;;;6032114;23;20042;-57
2021/10/19 05:07:20;;;;;;;26.15;23.05;;;12.80;99.90;;;;;;6033100;23;20027;-57
2021/10/19 05:09:46;;;;;;;26.85;23.58;;;12.80;99.90;;;;;;6033693;23;20027;-57
2021/10/19 05:12:12;;;;;;;30.20;24.77;;;12.80;99.90;;;;;;6033857;23;20492;-57
2021/10/19 05:14:39;;;;;;;26.15;22.85;;;12.90;99.90;;;;;;6032964;23;20034;-57
2021/10/19 05:17:05;;;;;;;28.05;23.77;;;12.80;99.90;;;;;;6032320;23;20063;-59
2021/10/19 05:19:31;;;;;;;28.15;24.20;;;12.90;99.90;;;;;;6032756;23;20066;-59
2021/10/19 05:21:58;;;;;;;27.77;24.83;;;12.90;99.90;;;;;;6034021;23;20047;-57
2021/10/19 05:24:28;;;;;;;29.73;24.38;;;12.90;99.90;;;;;;6033027;23;20031;-58
2021/10/19 05:26:54;;;;;;;29.10;24.35;;;12.90;99.90;;;;;;6032959;23;20027;-59
2021/10/19 05:29:21;;;;;;;32.47;26.40;;;12.90;99.90;;;;;;6033056;23;20091;-58
2021/10/19 05:31:47;;;;;;;29.55;26.30;;;12.90;99.90;;;;;;6033253;23;20027;-59
2021/10/19 05:34:13;;;;;;;29.45;25.38;;;12.90;99.90;;;;;;6034033;23;20030;-54
2021/10/19 05:36:40;;;;;;;36.35;27.17;;;12.90;99.90;;;;;;6033389;23;20461;-60
2021/10/19 05:39:08;;;;;;;30.33;25.88;;;12.90;99.90;;;;;;6032979;23;20034;-60
2021/10/19 05:41:34;;;;;;;29.15;24.70;;;12.90;99.90;;;;;;6032910;23;20058;-55
2021/10/19 05:44:00;;;;;;;29.98;26.45;;;12.80;99.90;;;;;;6032971;23;20027;-61
2021/10/19 05:46:32;;;;;;;33.83;27.02;;;12.90;99.90;;;;;;6033503;23;20027;-59
2021/10/19 05:48:58;;;;;;;35.85;27.92;;;12.80;99.90;;;;;;6033114;23;20038;-61
2021/10/19 05:51:25;;;;;;;32.53;25.95;;;12.80;99.90;;;;;;6030590;23;20039;-58
2021/10/19 05:53:56;;;;;;;34.00;27.48;;;12.80;99.90;;;;;;6032701;23;20338;-60
2021/10/19 05:56:22;;;;;;;32.95;25.60;;;12.80;99.90;;;;;;6032213;23;20095;-59
2021/10/19 05:58:50;;;;;;;34.20;28.13;;;12.90;99.90;;;;;;6033755;23;20453;-58
2021/10/19 06:01:16;;;;;;;30.15;26.52;;;12.90;99.90;;;;;;6032288;23;20487;-60
2021/10/19 06:03:43;;;;;;;34.15;28.88;;;12.90;99.90;;;;;;6032352;23;20067;-60
2021/10/19 06:06:12;;;;;;;35.03;28.35;;;12.90;99.90;;;;;;6031429;23;20029;-61
2021/10/19 06:08:39;;;;;;;33.55;29.27;;;12.90;99.90;;;;;;6031730;23;20059;-60
2021/10/19 06:11:07;;;;;;;38.80;28.65;;;12.90;99.90;;;;;;6032733;23;20032;-60
2021/10/19 06:13:33;;;;;;;36.53;30.13;;;12.90;99.90;;;;;;6033420;23;20106;-60
2021/10/19 06:15:59;;;;;;;34.88;29.73;;;12.90;99.90;;;;;;6031422;23;20083;-59
2021/10/19 06:18:26;;;;;;;40.83;30.75;;;12.90;99.90;;;;;;6032224;23;20093;-58
2021/10/19 06:20:52;;;;;;;37.08;31.30;;;12.90;99.90;;;;;;6032902;23;20449;-58
2021/10/19 06:23:19;;;;;;;41.83;32.25;;;12.90;99.90;;;;;;6033188;23;20725;-58
2021/10/19 06:25:46;;;;;;;40.83;31.23;;;12.90;99.90;;;;;;6032884;23;20033;-58
2021/10/19 06:28:12;;;;;;;38.92;31.17;;;12.90;99.90;;;;;;6033070;23;20062;-58
2021/10/19 06:30:39;;;;;;;39.67;31.40;;;13.00;99.90;;;;;;6032625;23;20581;-58
2021/10/19 06:33:05;;;;;;;41.88;33.88;;;13.00;99.90;;;;;;6031127;23;20027;-58
2021/10/19 06:35:31;;;;;;;41.35;32.83;;;13.00;99.90;;;;;;6033079;23;20031;-59
2021/10/19 06:37:57;;;;;;;43.63;33.28;;;13.00;99.90;;;;;;6031912;23;20031;-58
2021/10/19 06:40:23;;;;;;;39.65;31.48;;;13.00;99.90;;;;;;6032518;23;20106;-59
2021/10/19 06:42:49;;;;;;;39.03;33.60;;;13.10;99.90;;;;;;6032153;23;20609;-58
2021/10/19 06:45:16;;;;;;;40.78;32.97;;;13.10;99.90;;;;;;6031978;23;20109;-59
2021/10/19 06:47:42;;;;;;;42.22;34.35;;;13.10;99.90;;;;;;6032135;23;20090;-58
2021/10/19 06:50:10;;;;;;;42.85;34.13;;;13.10;99.90;;;;;;6031802;23;20146;-58
2021/10/19 06:52:36;;;;;;;38.03;32.55;;;13.10;99.90;;;;;;6031891;23;20039;-58
2021/10/19 06:55:07;;;;;;;40.75;32.53;;;13.10;99.90;;;;;;6032479;23;20050;-58
2021/10/19 06:57:46;;;;;;;39.83;32.50;;;13.20;99.90;;;;;;6031971;23;20771;-58
2021/10/19 07:00:14;;;;;;;38.10;32.08;;;13.20;99.90;;;;;;6033789;23;20035;-57
2021/10/19 07:02:41;;;;;;;38.67;32.53;;;13.30;99.90;;;;;;6033904;23;20067;-58
2021/10/19 07:05:08;;;;;;;40.08;33.55;;;13.30;99.90;;;;;;6033089;23;20495;-58
2021/10/19 07:07:39;;;;;;;40.13;35.08;;;13.30;99.90;;;;;;6032812;23;20027;-58
2021/10/19 07:10:12;;;;;;;38.97;32.15;;;13.30;99.90;;;;;;6032568;23;20079;-57
2021/10/19 07:12:41;;;;;;;34.05;30.40;;;13.30;99.90;;;;;;6032675;23;20127;-59
2021/10/19 07:15:09;;;;;;;39.33;32.78;;;13.40;99.90;;;;;;6034588;23;20094;-59
2021/10/19 07:17:35;;;;;;;37.17;30.50;;;13.30;99.90;;;;;;6055563;23;20475;-58
2021/10/19 07:20:02;;;;;;;36.63;32.65;;;13.40;99.90;;;;;;6033151;23;20035;-59
2021/10/19 07:22:31;;;;;;;37.42;32.13;;;13.50;99.90;;;;;;6031415;23;20027;-59
2021/10/19 07:24:58;;;;;;;36.35;29.73;;;13.50;99.90;;;;;;6033119;23;20062;-60
2021/10/19 07:27:24;;;;;;;34.72;30.63;;;13.50;99.90;;;;;;6033388;23;20027;-59
2021/10/19 07:29:50;;;;;;;35.50;30.55;;;13.60;99.90;;;;;;6032927;23;20027;-57
2021/10/19 07:32:16;;;;;;;33.38;29.88;;;13.50;99.90;;;;;;6033023;23;20130;-57
2021/10/19 07:34:42;;;;;;;36.88;30.00;;;13.60;99.90;;;;;;6032587;23;20485;-60
2021/10/19 07:37:11;;;;;;;32.85;29.48;;;13.60;99.90;;;;;;6032520;23;20480;-60
2021/10/19 07:39:40;;;;;;;36.13;32.45;;;13.60;99.90;;;;;;6033851;23;20042;-58
2021/10/19 07:42:06;;;;;;;31.08;27.88;;;13.70;99.90;;;;;;6032065;23;20082;-58
2021/10/19 07:44:32;;;;;;;29.05;26.13;;;13.80;99.90;;;;;;6032842;23;20121;-58
2021/10/19 07:47:01;;;;;;;32.75;29.33;;;13.70;99.90;;;;;;6032178;23;20027;-58
2021/10/19 07:49:27;;;;;;;34.10;30.52;;;13.70;99.90;;;;;;6032350;23;20031;-56
2021/10/19 07:51:53;;;;;;;30.67;27.15;;;13.80;99.90;;;;;;6032904;23;20039;-58
2021/10/19 07:54:21;;;;;;;31.77;28.02;;;13.80;99.90;;;;;;6033120;23;20084;-59
2021/10/19 07:56:47;;;;;;;30.67;27.48;;;13.80;99.90;;;;;;6032760;23;20527;-58
2021/10/19 07:59:13;;;;;;;32.90;27.95;;;13.90;99.90;;;;;;6033884;23;20630;-58
2021/10/19 08:01:41;;;;;;;31.00;27.70;;;13.90;99.90;;;;;;6033777;23;20027;-58
2021/10/19 08:04:08;;;;;;;34.88;31.08;;;13.90;99.90;;;;;;6035464;23;20091;-58
2021/10/19 08:06:37;;;;;;;34.65;27.73;;;13.90;99.90;;;;;;6034755;23;20716;-57
2021/10/19 08:09:05;;;;;;;30.02;25.98;;;13.90;99.90;;;;;;6034464;23;20064;-58
2021/10/19 08:11:31;;;;;;;30.48;27.35;;;14.00;99.90;;;;;;6033269;23;20353;-58
2021/10/19 08:13:58;;;;;;;30.73;27.52;;;14.00;99.90;;;;;;6035064;23;20087;-58
2021/10/19 08:16:25;;;;;;;28.65;25.73;;;14.00;99.90;;;;;;6035173;23;20177;-58
2021/10/19 08:18:53;;;;;;;30.08;27.08;;;14.10;99.90;;;;;;6034131;23;20575;-58
2021/10/19 08:21:21;;;;;;;27.48;24.67;;;14.20;99.90;;;;;;6034543;23;20110;-58
2021/10/19 08:23:47;;;;;;;26.38;23.77;;;14.20;99.90;;;;;;6034865;23;20027;-58
2021/10/19 08:26:13;;;;;;;25.30;22.77;;;14.20;99.90;;;;;;6034513;23;20497;-58
2021/10/19 08:28:43;;;;;;;26.42;23.92;;;14.20;99.90;;;;;;6034104;23;20480;-57
2021/10/19 08:31:14;;;;;;;29.52;26.63;;;14.30;99.90;;;;;;6034978;23;20050;-58
2021/10/19 08:33:43;;;;;;;25.13;22.42;;;14.30;99.90;;;;;;6033894;23;20024;-58
2021/10/19 08:36:12;;;;;;;27.33;24.40;;;14.30;99.90;;;;;;6034462;23;20037;-58
2021/10/19 08:38:41;;;;;;;24.23;21.83;;;14.30;99.90;;;;;;6033635;23;20042;-58
2021/10/19 08:41:07;;;;;;;24.17;21.77;;;14.30;99.90;;;;;;6034023;23;20028;-58
2021/10/19 08:43:34;;;;;;;24.95;22.55;;;14.40;99.90;;;;;;6034277;23;20114;-58
2021/10/19 08:46:00;;;;;;;22.50;20.27;;;14.40;99.90;;;;;;6033966;23;20031;-58
2021/10/19 08:48:29;;;;;;;23.92;21.42;;;14.40;99.90;;;;;;6033437;23;20032;-58
2021/10/19 08:50:57;;;;;;;23.33;20.85;;;14.40;99.90;;;;;;6033746;23;20023;-58
2021/10/19 08:53:23;;;;;;;25.75;23.23;;;14.50;99.90;;;;;;6034246;23;20464;-58
2021/10/19 08:55:49;;;;;;;23.33;21.05;;;14.50;99.90;;;;;;6032465;23;20082;-58
2021/10/19 08:58:16;;;;;;;24.85;22.20;;;14.50;99.90;;;;;;6033180;23;20081;-58
2021/10/19 09:00:43;;;;;;;26.75;23.98;;;14.50;99.90;;;;;;6034262;23;20042;-58
2021/10/19 09:03:10;;;;;;;24.85;22.30;;;14.50;99.90;;;;;;6033756;23;20027;-58
2021/10/19 09:05:36;;;;;;;25.00;22.08;;;14.60;99.90;;;;;;6033739;23;20078;-58
2021/10/19 09:08:04;;;;;;;30.45;27.40;;;14.60;99.90;;;;;;6033962;23;20082;-57
2021/10/19 09:10:33;;;;;;;23.55;21.13;;;14.60;99.90;;;;;;6034152;23;20060;-58
2021/10/19 09:13:05;;;;;;;24.02;21.73;;;14.60;99.90;;;;;;6034028;23;20135;-58
2021/10/19 09:15:36;;;;;;;22.73;20.33;;;14.60;99.90;;;;;;6032875;23;20024;-58
2021/10/19 09:18:04;;;;;;;25.65;21.42;;;14.60;99.90;;;;;;6033136;23;20042;-58
2021/10/19 09:20:39;;;;;;;23.52;21.15;;;14.60;99.90;;;;;;6033747;23;20031;-58
2021/10/19 09:23:06;;;;;;;24.77;22.27;;;14.70;99.90;;;;;;6034875;23;20031;-58
2021/10/19 09:25:39;;;;;;;25.95;23.25;;;14.70;99.90;;;;;;6034238;23;20110;-58
2021/10/19 09:28:10;;;;;;;26.00;23.30;;;14.70;99.90;;;;;;6033643;23;20035;-58
2021/10/19 09:30:46;;;;;;;25.30;22.70;;;14.70;99.90;;;;;;6033249;23;20529;-58
2021/10/19 09:33:17;;;;;;;27.65;23.65;;;14.70;99.90;;;;;;6032977;23;20043;-58
2021/10/19 09:35:48;;;;;;;24.77;22.33;;;14.80;99.90;;;;;;6033120;23;20042;-58
2021/10/19 09:38:14;;;;;;;26.80;22.95;;;14.80;99.90;;;;;;6032504;23;20065;-58
2021/10/19 09:40:52;;;;;;;25.55;22.85;;;14.80;99.90;;;;;;6032605;23;20035;-57
2021/10/19 09:43:23;;;;;;;27.98;24.20;;;14.80;99.90;;;;;;6031039;23;20768;-57
2021/10/19 09:45:56;;;;;;;27.17;23.83;;;14.80;99.90;;;;;;6032606;23;20034;-58
2021/10/19 09:48:29;;;;;;;28.47;24.33;;;14.80;99.90;;;;;;6033278;23;20023;-58
2021/10/19 09:50:55;;;;;;;29.30;26.08;;;14.80;99.90;;;;;;6033457;23;20027;-57
2021/10/19 09:53:25;;;;;;;27.90;23.85;;;14.90;99.90;;;;;;6033477;23;20524;-58
2021/10/19 09:55:53;;;;;;;31.13;27.02;;;14.90;99.90;;;;;;6033943;23;20031;-57
2021/10/19 09:58:20;;;;;;;26.27;23.48;;;14.90;99.90;;;;;;6032639;23;20038;-58
2021/10/19 10:00:46;;;;;;;27.85;24.60;;;15.00;99.90;;;;;;6033547;23;20034;-59
2021/10/19 10:03:15;;;;;;;24.33;21.73;;;15.00;99.90;;;;;;6034047;23;20030;-57
2021/10/19 10:05:42;;;;;;;25.42;22.70;;;15.10;99.90;;;;;;6034644;23;20039;-58
2021/10/19 10:08:27;;;;;;;24.95;22.25;;;15.10;99.90;;;;;;6032973;23;20024;-58
2021/10/19 10:10:57;;;;;;;23.40;20.35;;;15.20;99.90;;;;;;6031081;23;20083;-58
2021/10/19 10:13:25;;;;;;;23.42;20.83;;;15.20;99.90;;;;;;6033460;23;20369;-58
2021/10/19 10:15:52;;;;;;;22.80;20.40;;;15.30;99.90;;;;;;6032815;23;20035;-58
2021/10/19 10:18:31;;;;;;;22.92;20.52;;;15.30;99.90;;;;;;6032874;23;20106;-58
2021/10/19 10:20:57;;;;;;;21.90;19.40;;;15.40;99.90;;;;;;6033898;23;20408;-58
2021/10/19 10:23:30;;;;;;;21.42;19.15;;;15.40;99.90;;;;;;6033171;23;20031;-58
2021/10/19 10:25:59;;;;;;;20.95;18.75;;;15.40;99.90;;;;;;6033001;23;20031;-58
2021/10/19 10:28:32;;;;;;;21.02;19.00;;;15.40;99.90;;;;;;6032811;23;20401;-58
2021/10/19 10:31:01;;;;;;;21.15;18.80;;;15.40;99.90;;;;;;6032380;23;20042;-57
2021/10/19 10:33:38;;;;;;;21.77;19.60;;;15.40;99.90;;;;;;6033279;23;20024;-58
2021/10/19 10:36:12;;;;;;;21.02;18.92;;;15.50;99.90;;;;;;6032991;23;20091;-59
2021/10/19 10:38:53;;;;;;;19.67;17.67;;;15.50;99.90;;;;;;6032531;23;20027;-58
2021/10/19 10:41:19;;;;;;;19.83;17.88;;;15.60;99.90;;;;;;6031099;23;20453;-58
2021/10/19 10:44:00;;;;;;;19.75;17.85;;;15.60;99.90;;;;;;6032348;23;20042;-58
2021/10/19 10:46:26;;;;;;;19.08;17.13;;;15.60;99.90;;;;;;6032524;23;20071;-58
2021/10/19 10:48:56;;;;;;;19.30;17.33;;;15.70;99.90;;;;;;6032317;23;20035;-58
2021/10/19 10:51:33;;;;;;;19.10;17.17;;;15.70;99.90;;;;;;6030054;23;20366;-58
2021/10/19 10:54:00;;;;;;;18.35;16.40;;;15.80;99.90;;;;;;6028395;23;20039;-58
2021/10/19 10:56:26;;;;;;;16.10;14.50;;;15.80;99.90;;;;;;6031472;23;20033;-57
2021/10/19 10:58:53;;;;;;;17.63;15.82;;;15.90;99.90;;;;;;6032163;23;20118;-57
2021/10/19 11:01:28;;;;;;;16.17;14.43;;;15.90;99.90;;;;;;6006367;23;20406;-58
2021/10/19 11:04:07;;;;;;;16.55;14.90;;;15.90;99.90;;;;;;6033353;23;20046;-58
2021/10/19 11:06:40;;;;;;;16.27;14.70;;;15.90;99.90;;;;;;6033457;23;20023;-58
2021/10/19 11:09:14;;;;;;;14.77;13.48;;;15.80;99.90;;;;;;6032850;23;20414;-58
2021/10/19 11:11:43;;;;;;;16.13;14.55;;;15.80;99.90;;;;;;6032697;23;20038;-59
2021/10/19 11:14:13;;;;;;;16.98;15.40;;;15.80;99.90;;;;;;6032918;23;20091;-58
2021/10/19 11:16:47;;;;;;;16.85;15.15;;;15.80;99.90;;;;;;6032713;23;20441;-59
2021/10/19 11:19:22;;;;;;;16.27;14.70;;;15.80;99.90;;;;;;6032490;23;20035;-58
2021/10/19 11:21:51;;;;;;;16.48;14.98;;;15.80;99.90;;;;;;6032538;23;20062;-59
2021/10/19 11:24:21;;;;;;;16.77;15.10;;;15.80;99.90;;;;;;6032519;23;20067;-58
2021/10/19 11:26:48;;;;;;;16.75;15.15;;;15.80;99.90;;;;;;6032809;23;20027;-58
2021/10/19 11:29:15;;;;;;;17.38;15.55;;;15.80;99.90;;;;;;6032381;23;20043;-57
2021/10/19 11:31:42;;;;;;;19.17;17.30;;;15.90;99.90;;;;;;6032249;23;20507;-58
2021/10/19 11:34:09;;;;;;;18.63;16.83;;;15.80;99.90;;;;;;6033396;23;20031;-58
2021/10/19 11:36:36;;;;;;;18.17;16.38;;;15.90;99.90;;;;;;6031619;23;20087;-58
2021/10/19 11:39:11;;;;;;;20.70;18.55;;;15.80;99.90;;;;;;6034608;23;20114;-58
2021/10/19 11:41:39;;;;;;;20.75;18.63;;;15.90;99.90;;;;;;6033791;23;20056;-58
2021/10/19 11:44:06;;;;;;;21.70;19.38;;;15.90;99.90;;;;;;6033998;23;20446;-58
2021/10/19 11:46:37;;;;;;;25.30;22.73;;;15.90;99.90;;;;;;6034682;23;20039;-58
2021/10/19 11:49:24;;;;;;;19.48;17.55;;;15.90;99.90;;;;;;6034398;23;20027;-58
2021/10/19 11:51:52;;;;;;;20.48;18.35;;;16.00;99.90;;;;;;6033428;23;20031;-58
2021/10/19 11:54:20;;;;;;;21.70;19.40;;;16.00;99.90;;;;;;6033162;23;20087;-58
2021/10/19 11:56:54;;;;;;;21.17;18.98;;;16.00;99.90;;;;;;6032501;23;20027;-57
2021/10/19 11:59:20;;;;;;;19.85;17.80;;;16.10;99.90;;;;;;6056209;23;20031;-56
2021/10/19 12:01:52;;;;;;;17.52;15.82;;;16.20;99.90;;;;;;6034008;23;20027;-56
2021/10/19 12:04:26;;;;;;;19.25;17.35;;;16.30;99.90;;;;;;6032470;23;20023;-55
2021/10/19 12:06:54;;;;;;;18.65;15.52;;;16.30;99.90;;;;;;6033874;23;20099;-57
2021/10/19 12:09:23;;;;;;;18.25;16.30;;;16.40;99.90;;;;;;6033572;23;20465;-56
2021/10/19 12:12:08;;;;;;;16.88;15.13;;;16.40;99.90;;;;;;6034312;23;20066;-56
2021/10/19 12:14:35;;;;;;;16.63;14.77;;;16.30;99.90;;;;;;6034045;23;20027;-57
2021/10/19 12:17:04;;;;;;;15.98;14.38;;;16.30;99.90;;;;;;6034195;23;20041;-57
2021/10/19 12:19:32;;;;;;;16.98;15.25;;;16.40;99.90;;;;;;6034312;23;20027;-57
2021/10/19 12:22:06;;;;;;;17.67;15.75;;;16.40;99.90;;;;;;6033803;23;20027;-57
2021/10/19 12:24:36;;;;;;;18.00;16.10;;;16.40;99.90;;;;;;6034054;23;20038;-57
2021/10/19 12:27:23;;;;;;;19.05;16.30;;;16.50;99.90;;;;;;6034104;23;20345;-56
2021/10/19 12:29:54;;;;;;;17.20;15.40;;;16.50;99.90;;;;;;6033541;23;20027;-55
2021/10/19 12:32:31;;;;;;;17.13;15.30;;;16.50;99.90;;;;;;6031931;23;20031;-56